Atlas — SV6729 — position and weather

sailwx.info

Track history (hours):
 
Tides and Currents Weather Stations Pressure Air Temp Water Temp Dewpoint Dewpoint Depression Visibility Wind Speed Wind Dir Waves Ship Positions

Atlas

Last reported at 2016-Aug-08 12:33 UTC. Time now 2016-Aug-25 01:03 UTC.
Position N 37°57' E 023°36'.
Warning: this ship's position is 16 days out of date.

Length 29 m; draft 5 m.

Type: Tug. MMSI: 239611000.

Date/timePositionNaut miles runAvg speedWind from/ knotsBaromVisibWave heightAir tempDewpointWater temp
2016-Aug-08 12:33N 37°57' E 023°36'7 6.8
2016-Aug-08 11:33N 38°02' E 023°30'0 0.2
2016-Aug-08 10:32N 38°02' E 023°30'2 1.8
2016-Aug-08 09:24N 38°02' E 023°32'0 0.0
2016-Aug-08 08:22N 38°02' E 023°32'1 1.6
2016-Aug-08 07:32N 38°02' E 023°31'1 0.7
2016-Aug-08 06:30N 38°02' E 023°30'0 0.0
2016-Aug-08 05:31N 38°02' E 023°30'6 6.2
2016-Aug-08 04:33N 37°57' E 023°35'2 1.6
2016-Aug-08 03:32N 37°57' E 023°37'0 0.0
2016-Aug-06 14:15N 37°57' E 023°37'0 0.3
2016-Aug-06 13:26N 37°58' E 023°36'0 0.3
2016-Aug-06 12:32N 37°57' E 023°37'0 0.0
2016-Aug-06 11:33N 37°57' E 023°37'0 0.0
2016-Aug-06 10:31N 37°57' E 023°37'0 0.0
2016-Aug-06 09:26N 37°57' E 023°37'0 0.0
2016-Aug-06 08:32N 37°57' E 023°37'0 0.3
2016-Aug-06 07:28N 37°57' E 023°36'0 0.1
2016-Aug-06 04:31N 37°57' E 023°37'0 0.0
2016-Aug-06 03:32N 37°57' E 023°37'0 0.0
2016-Aug-05 10:33N 37°57' E 023°37'0 0.0
2016-Aug-05 09:29N 37°57' E 023°37'0 0.0
2016-Aug-05 08:33N 37°57' E 023°37'0 0.3
2016-Aug-05 07:31N 37°57' E 023°36'1 1.2
2016-Aug-05 06:33N 37°58' E 023°35'2 0.8
2016-Aug-05 04:32N 37°57' E 023°37'0 0.0
2016-Aug-05 03:28N 37°57' E 023°37'0 0.0
2016-Aug-04 19:29N 37°57' E 023°37'0 0.0
2016-Aug-04 18:32N 37°57' E 023°37'0 0.0
2016-Aug-04 17:32N 37°57' E 023°37'0 0.0
2016-Aug-04 16:33N 37°57' E 023°37'1 0.7
2016-Aug-04 15:33N 37°57' E 023°36'1 0.7
2016-Aug-04 14:33N 37°57' E 023°37'0 0.0
2016-Aug-04 13:29N 37°57' E 023°37'0 0.0
2016-Aug-04 12:33N 37°57' E 023°37'0 0.0
2016-Aug-04 11:31N 37°57' E 023°37'2 1.9
2016-Aug-04 10:29N 37°58' E 023°34'1 0.7
2016-Aug-04 09:34N 37°57' E 023°35'1 1.4
2016-Aug-04 08:31N 37°57' E 023°37'0 0.0
2016-Aug-04 07:32N 37°57' E 023°37'0 0.0
2016-Aug-04 06:33N 37°57' E 023°37'1 0.5
2016-Aug-04 04:33N 37°57' E 023°35'1 1.0
2016-Aug-04 03:31N 37°57' E 023°37'0 0.0
2016-Aug-03 10:20N 37°57' E 023°37'0 0.0
2016-Aug-03 09:29N 37°57' E 023°37'4 4.5
2016-Aug-03 08:33N 38°01' E 023°35'2 2.3
2016-Aug-03 07:34N 38°02' E 023°32'0 0.1
2016-Aug-03 06:33N 38°02' E 023°32'1 0.7
2016-Aug-03 04:30N 38°02' E 023°31'1 1.3
2016-Aug-03 03:33N 38°02' E 023°32'0 0.0
2016-Aug-03 02:31N 38°02' E 023°32'0 0.0
2016-Aug-03 01:33N 38°02' E 023°32'0 0.0
2016-Aug-03 00:33N 38°02' E 023°32'0 0.0
2016-Aug-02 23:33N 38°02' E 023°32'0 0.0
2016-Aug-02 22:30N 38°02' E 023°32'0 0.0
2016-Aug-02 21:31N 38°02' E 023°32'1 0.6
2016-Aug-02 20:33N 38°02' E 023°33'2 1.5
2016-Aug-02 19:33N 38°02' E 023°31'2 1.5
2016-Aug-02 18:32N 38°02' E 023°32'0 0.0
2016-Aug-02 17:28N 38°02' E 023°32'1 1.4
2016-Aug-02 16:29N 38°02' E 023°31'1 1.4
2016-Aug-02 15:33N 38°02' E 023°32'0 0.1
2016-Aug-02 14:32N 38°02' E 023°32'0 0.0
2016-Aug-02 13:30N 38°02' E 023°32'0 0.0
2016-Aug-02 12:31N 38°02' E 023°32'0 0.0
2016-Aug-02 11:31N 38°02' E 023°32'0 0.0
2016-Aug-02 10:31N 38°02' E 023°32'0 0.0
2016-Aug-02 09:25N 38°02' E 023°32'2 2.5
2016-Aug-02 08:32N 38°02' E 023°30'0 0.2
2016-Aug-02 07:33N 38°02' E 023°30'2 2.0
2016-Aug-02 06:32N 38°02' E 023°32'5 2.7
2016-Aug-02 04:31N 37°58' E 023°36'0 0.4
2016-Aug-02 03:31N 37°57' E 023°37'0 0.0
2016-Aug-01 09:28N 37°57' E 023°37'1 0.8
2016-Aug-01 08:32N 37°57' E 023°37'1 1.0
2016-Aug-01 07:33N 37°57' E 023°36'1 0.3
2016-Aug-01 04:28N 37°57' E 023°37'0 0.0
2016-Aug-01 03:33N 37°57' E 023°37'1 0.7
2016-Aug-01 02:31N 37°57' E 023°36'0 0.0
2016-Aug-01 01:29N 37°57' E 023°36'0 0.0
2016-Aug-01 00:32N 37°57' E 023°36'0 0.0
2016-Jul-31 23:31N 37°57' E 023°36'0 0.0
2016-Jul-31 22:31N 37°57' E 023°36'0 0.0
2016-Jul-31 21:32N 37°57' E 023°36'0 0.0
2016-Jul-31 20:31N 37°57' E 023°36'0 0.1
2016-Jul-31 19:33N 37°57' E 023°36'0 0.0
2016-Jul-31 18:29N 37°57' E 023°36'0 0.4
2016-Jul-31 17:33N 37°57' E 023°35'1 1.0
2016-Jul-31 16:27N 37°57' E 023°37'0 0.0
2016-Jul-31 15:31N 37°57' E 023°37'0 0.0
2016-Jul-31 14:33N 37°57' E 023°37'0 0.0
2016-Jul-31 13:31N 37°57' E 023°37'1 0.6
2016-Jul-31 12:33N 37°57' E 023°36'1 0.3
2016-Jul-31 10:28N 37°58' E 023°36'0 0.4
2016-Jul-31 09:32N 37°57' E 023°37'0 0.0
2016-Jul-31 08:31N 37°57' E 023°37'1 0.8
2016-Jul-31 07:33N 37°57' E 023°36'2 1.8
2016-Jul-31 06:31N 37°58' E 023°33'0 0.0
2016-Jul-31 05:33N 37°58' E 023°33'2 2.4
2016-Jul-31 04:31N 37°58' E 023°37'0 0.2
2016-Jul-31 03:33N 37°57' E 023°37'1 0.0
2016-Jul-29 20:33N 37°57' E 023°35'0 0.2
2016-Jul-29 19:32N 37°57' E 023°35'0 0.1
2016-Jul-29 18:28N 37°57' E 023°35'0 0.4
2016-Jul-29 17:33N 37°57' E 023°36'1 0.7
2016-Jul-29 16:33N 37°57' E 023°35'1 1.1
2016-Jul-29 15:33N 37°57' E 023°36'3 2.8
2016-Jul-29 14:34N 37°58' E 023°33'4 4.3
2016-Jul-29 13:32N 38°02' E 023°30'5 5.5
2016-Jul-29 12:34N 37°57' E 023°34'  
Track history (hours):
 
Tides and Currents Weather Stations Pressure Air Temp Water Temp Dewpoint Dewpoint Depression Visibility Wind Speed Wind Dir Waves Ship Positions

Atlas

Last reported at 2016-Aug-08 12:33 UTC. Time now 2016-Aug-25 01:03 UTC.
Position N 37°57' E 023°36'.
Warning: this ship's position is 16 days out of date.

Length 29 m; draft 5 m.

Type: Tug. MMSI: 239611000.

Date/timePositionNaut miles runAvg speedWind from/ knotsBaromVisibWave heightAir tempDewpointWater temp
2016-Aug-08 12:33N 37°57' E 023°36'7 6.8
2016-Aug-08 11:33N 38°02' E 023°30'0 0.2
2016-Aug-08 10:32N 38°02' E 023°30'2 1.8
2016-Aug-08 09:24N 38°02' E 023°32'0 0.0
2016-Aug-08 08:22N 38°02' E 023°32'1 1.6
2016-Aug-08 07:32N 38°02' E 023°31'1 0.7
2016-Aug-08 06:30N 38°02' E 023°30'0 0.0
2016-Aug-08 05:31N 38°02' E 023°30'6 6.2
2016-Aug-08 04:33N 37°57' E 023°35'2 1.6
2016-Aug-08 03:32N 37°57' E 023°37'0 0.0
2016-Aug-06 14:15N 37°57' E 023°37'0 0.3
2016-Aug-06 13:26N 37°58' E 023°36'0 0.3
2016-Aug-06 12:32N 37°57' E 023°37'0 0.0
2016-Aug-06 11:33N 37°57' E 023°37'0 0.0
2016-Aug-06 10:31N 37°57' E 023°37'0 0.0
2016-Aug-06 09:26N 37°57' E 023°37'0 0.0
2016-Aug-06 08:32N 37°57' E 023°37'0 0.3
2016-Aug-06 07:28N 37°57' E 023°36'0 0.1
2016-Aug-06 04:31N 37°57' E 023°37'0 0.0
2016-Aug-06 03:32N 37°57' E 023°37'0 0.0
2016-Aug-05 10:33N 37°57' E 023°37'0 0.0
2016-Aug-05 09:29N 37°57' E 023°37'0 0.0
2016-Aug-05 08:33N 37°57' E 023°37'0 0.3
2016-Aug-05 07:31N 37°57' E 023°36'1 1.2
2016-Aug-05 06:33N 37°58' E 023°35'2 0.8
2016-Aug-05 04:32N 37°57' E 023°37'0 0.0
2016-Aug-05 03:28N 37°57' E 023°37'0 0.0
2016-Aug-04 19:29N 37°57' E 023°37'0 0.0
2016-Aug-04 18:32N 37°57' E 023°37'0 0.0
2016-Aug-04 17:32N 37°57' E 023°37'0 0.0
2016-Aug-04 16:33N 37°57' E 023°37'1 0.7
2016-Aug-04 15:33N 37°57' E 023°36'1 0.7
2016-Aug-04 14:33N 37°57' E 023°37'0 0.0
2016-Aug-04 13:29N 37°57' E 023°37'0 0.0
2016-Aug-04 12:33N 37°57' E 023°37'0 0.0
2016-Aug-04 11:31N 37°57' E 023°37'2 1.9
2016-Aug-04 10:29N 37°58' E 023°34'1 0.7
2016-Aug-04 09:34N 37°57' E 023°35'1 1.4
2016-Aug-04 08:31N 37°57' E 023°37'0 0.0
2016-Aug-04 07:32N 37°57' E 023°37'0 0.0
2016-Aug-04 06:33N 37°57' E 023°37'1 0.5
2016-Aug-04 04:33N 37°57' E 023°35'1 1.0
2016-Aug-04 03:31N 37°57' E 023°37'0 0.0
2016-Aug-03 10:20N 37°57' E 023°37'0 0.0
2016-Aug-03 09:29N 37°57' E 023°37'4 4.5
2016-Aug-03 08:33N 38°01' E 023°35'2 2.3
2016-Aug-03 07:34N 38°02' E 023°32'0 0.1
2016-Aug-03 06:33N 38°02' E 023°32'1 0.7
2016-Aug-03 04:30N 38°02' E 023°31'1 1.3
2016-Aug-03 03:33N 38°02' E 023°32'0 0.0
2016-Aug-03 02:31N 38°02' E 023°32'0 0.0
2016-Aug-03 01:33N 38°02' E 023°32'0 0.0
2016-Aug-03 00:33N 38°02' E 023°32'0 0.0
2016-Aug-02 23:33N 38°02' E 023°32'0 0.0
2016-Aug-02 22:30N 38°02' E 023°32'0 0.0
2016-Aug-02 21:31N 38°02' E 023°32'1 0.6
2016-Aug-02 20:33N 38°02' E 023°33'2 1.5
2016-Aug-02 19:33N 38°02' E 023°31'2 1.5
2016-Aug-02 18:32N 38°02' E 023°32'0 0.0
2016-Aug-02 17:28N 38°02' E 023°32'1 1.4
2016-Aug-02 16:29N 38°02' E 023°31'1 1.4
2016-Aug-02 15:33N 38°02' E 023°32'0 0.1
2016-Aug-02 14:32N 38°02' E 023°32'0 0.0
2016-Aug-02 13:30N 38°02' E 023°32'0 0.0
2016-Aug-02 12:31N 38°02' E 023°32'0 0.0
2016-Aug-02 11:31N 38°02' E 023°32'0 0.0
2016-Aug-02 10:31N 38°02' E 023°32'0 0.0
2016-Aug-02 09:25N 38°02' E 023°32'2 2.5
2016-Aug-02 08:32N 38°02' E 023°30'0 0.2
2016-Aug-02 07:33N 38°02' E 023°30'2 2.0
2016-Aug-02 06:32N 38°02' E 023°32'5 2.7
2016-Aug-02 04:31N 37°58' E 023°36'0 0.4
2016-Aug-02 03:31N 37°57' E 023°37'0 0.0
2016-Aug-01 09:28N 37°57' E 023°37'1 0.8
2016-Aug-01 08:32N 37°57' E 023°37'1 1.0
2016-Aug-01 07:33N 37°57' E 023°36'1 0.3
2016-Aug-01 04:28N 37°57' E 023°37'0 0.0
2016-Aug-01 03:33N 37°57' E 023°37'1 0.7
2016-Aug-01 02:31N 37°57' E 023°36'0 0.0
2016-Aug-01 01:29N 37°57' E 023°36'0 0.0
2016-Aug-01 00:32N 37°57' E 023°36'0 0.0
2016-Jul-31 23:31N 37°57' E 023°36'0 0.0
2016-Jul-31 22:31N 37°57' E 023°36'0 0.0
2016-Jul-31 21:32N 37°57' E 023°36'0 0.0
2016-Jul-31 20:31N 37°57' E 023°36'0 0.1
2016-Jul-31 19:33N 37°57' E 023°36'0 0.0
2016-Jul-31 18:29N 37°57' E 023°36'0 0.4
2016-Jul-31 17:33N 37°57' E 023°35'1 1.0
2016-Jul-31 16:27N 37°57' E 023°37'0 0.0
2016-Jul-31 15:31N 37°57' E 023°37'0 0.0
2016-Jul-31 14:33N 37°57' E 023°37'0 0.0
2016-Jul-31 13:31N 37°57' E 023°37'1 0.6
2016-Jul-31 12:33N 37°57' E 023°36'1 0.3
2016-Jul-31 10:28N 37°58' E 023°36'0 0.4
2016-Jul-31 09:32N 37°57' E 023°37'0 0.0
2016-Jul-31 08:31N 37°57' E 023°37'1 0.8
2016-Jul-31 07:33N 37°57' E 023°36'2 1.8
2016-Jul-31 06:31N 37°58' E 023°33'0 0.0
2016-Jul-31 05:33N 37°58' E 023°33'2 2.4
2016-Jul-31 04:31N 37°58' E 023°37'0 0.2
2016-Jul-31 03:33N 37°57' E 023°37'1 0.0
2016-Jul-29 20:33N 37°57' E 023°35'0 0.2
2016-Jul-29 19:32N 37°57' E 023°35'0 0.1
2016-Jul-29 18:28N 37°57' E 023°35'0 0.4
2016-Jul-29 17:33N 37°57' E 023°36'1 0.7
2016-Jul-29 16:33N 37°57' E 023°35'1 1.1
2016-Jul-29 15:33N 37°57' E 023°36'3 2.8
2016-Jul-29 14:34N 37°58' E 023°33'4 4.3
2016-Jul-29 13:32N 38°02' E 023°30'5 5.5
2016-Jul-29 12:34N 37°57' E 023°34'  

Dump ship's entire track history